sensor_id;sensor_type;location;lat;lon;timestamp;temperature;humidity
9998;DHT22;5038;53.064;8.624;2023-04-21T00:00:05;9.10;99.90
9998;DHT22;5038;53.064;8.624;2023-04-21T00:02:37;9.10;99.90
9998;DHT22;5038;53.064;8.624;2023-04-21T00:05:08;9.10;99.90
9998;DHT22;5038;53.064;8.624;2023-04-21T00:07:41;9.10;99.90
9998;DHT22;5038;53.064;8.624;2023-04-21T00:10:10;9.00;99.90
9998;DHT22;5038;53.064;8.624;2023-04-21T00:12:39;9.00;99.90
9998;DHT22;5038;53.064;8.624;2023-04-21T00:15:08;9.00;99.90
9998;DHT22;5038;53.064;8.624;2023-04-21T00:17:36;9.00;99.90
9998;DHT22;5038;53.064;8.624;2023-04-21T00:20:06;9.00;99.90
9998;DHT22;5038;53.064;8.624;2023-04-21T00:22:36;9.00;99.90
9998;DHT22;5038;53.064;8.624;2023-04-21T00:25:06;9.00;99.90
9998;DHT22;5038;53.064;8.624;2023-04-21T00:27:34;9.00;99.90
9998;DHT22;5038;53.064;8.624;2023-04-21T00:30:04;9.00;99.90
9998;DHT22;5038;53.064;8.624;2023-04-21T00:32:34;9.00;99.90
9998;DHT22;5038;53.064;8.624;2023-04-21T00:35:02;9.00;99.90
9998;DHT22;5038;53.064;8.624;2023-04-21T00:37:30;9.00;99.90
9998;DHT22;5038;53.064;8.624;2023-04-21T00:39:58;8.90;99.90
9998;DHT22;5038;53.064;8.624;2023-04-21T00:42:28;8.90;99.90
9998;DHT22;5038;53.064;8.624;2023-04-21T00:44:56;9.00;99.90
9998;DHT22;5038;53.064;8.624;2023-04-21T00:47:24;9.00;99.90
9998;DHT22;5038;53.064;8.624;2023-04-21T00:49:52;9.00;99.90
9998;DHT22;5038;53.064;8.624;2023-04-21T00:52:21;9.00;99.90
9998;DHT22;5038;53.064;8.624;2023-04-21T00:54:49;9.00;99.90
9998;DHT22;5038;53.064;8.624;2023-04-21T00:57:18;9.00;99.90
9998;DHT22;5038;53.064;8.624;2023-04-21T00:59:47;9.00;99.90
9998;DHT22;5038;53.064;8.624;2023-04-21T01:02:17;9.00;99.90
9998;DHT22;5038;53.064;8.624;2023-04-21T01:04:46;9.00;99.90
9998;DHT22;5038;53.064;8.624;2023-04-21T01:07:15;9.00;99.90
9998;DHT22;5038;53.064;8.624;2023-04-21T01:09:43;9.00;99.90
9998;DHT22;5038;53.064;8.624;2023-04-21T01:12:11;9.00;99.90
9998;DHT22;5038;53.064;8.624;2023-04-21T01:14:40;9.00;99.90
9998;DHT22;5038;53.064;8.624;2023-04-21T01:17:11;9.00;99.90
9998;DHT22;5038;53.064;8.624;2023-04-21T01:19:41;9.00;99.90
9998;DHT22;5038;53.064;8.624;2023-04-21T01:22:11;9.00;99.90
9998;DHT22;5038;53.064;8.624;2023-04-21T01:24:42;9.00;99.90
9998;DHT22;5038;53.064;8.624;2023-04-21T01:27:13;9.00;99.90
9998;DHT22;5038;53.064;8.624;2023-04-21T01:29:43;9.00;99.90
9998;DHT22;5038;53.064;8.624;2023-04-21T01:32:14;9.00;99.90
9998;DHT22;5038;53.064;8.624;2023-04-21T01:34:44;9.00;99.90
9998;DHT22;5038;53.064;8.624;2023-04-21T01:37:16;9.00;99.90
9998;DHT22;5038;53.064;8.624;2023-04-21T01:39:46;8.90;99.90
9998;DHT22;5038;53.064;8.624;2023-04-21T01:42:18;8.90;99.90
9998;DHT22;5038;53.064;8.624;2023-04-21T01:44:46;8.90;99.90
9998;DHT22;5038;53.064;8.624;2023-04-21T01:47:17;8.90;99.90
9998;DHT22;5038;53.064;8.624;2023-04-21T01:49:45;8.90;99.90
9998;DHT22;5038;53.064;8.624;2023-04-21T01:52:15;8.90;99.90
9998;DHT22;5038;53.064;8.624;2023-04-21T01:54:44;8.90;99.90
9998;DHT22;5038;53.064;8.624;2023-04-21T01:57:13;8.80;99.90
9998;DHT22;5038;53.064;8.624;2023-04-21T01:59:41;8.80;99.90
9998;DHT22;5038;53.064;8.624;2023-04-21T02:02:10;8.80;99.90
9998;DHT22;5038;53.064;8.624;2023-04-21T02:04:38;8.80;99.90
9998;DHT22;5038;53.064;8.624;2023-04-21T02:07:07;8.80;99.90
9998;DHT22;5038;53.064;8.624;2023-04-21T02:09:36;8.80;99.90
9998;DHT22;5038;53.064;8.624;2023-04-21T02:12:05;8.80;99.90
9998;DHT22;5038;53.064;8.624;2023-04-21T02:14:33;8.70;99.90
9998;DHT22;5038;53.064;8.624;2023-04-21T02:17:01;8.70;99.90
9998;DHT22;5038;53.064;8.624;2023-04-21T02:19:29;8.70;99.90
9998;DHT22;5038;53.064;8.624;2023-04-21T02:21:57;8.70;99.90
9998;DHT22;5038;53.064;8.624;2023-04-21T02:24:25;8.70;99.90
9998;DHT22;5038;53.064;8.624;2023-04-21T02:26:55;8.70;99.90
9998;DHT22;5038;53.064;8.624;2023-04-21T02:29:27;8.70;99.90
9998;DHT22;5038;53.064;8.624;2023-04-21T02:31:55;8.70;99.90
9998;DHT22;5038;53.064;8.624;2023-04-21T02:34:39;8.70;99.90
9998;DHT22;5038;53.064;8.624;2023-04-21T02:37:08;8.70;99.90
9998;DHT22;5038;53.064;8.624;2023-04-21T02:39:37;8.70;99.90
9998;DHT22;5038;53.064;8.624;2023-04-21T02:42:06;8.70;99.90
9998;DHT22;5038;53.064;8.624;2023-04-21T02:44:36;8.70;99.90
9998;DHT22;5038;53.064;8.624;2023-04-21T02:47:04;8.70;99.90
9998;DHT22;5038;53.064;8.624;2023-04-21T02:49:32;8.70;99.90
9998;DHT22;5038;53.064;8.624;2023-04-21T02:52:00;8.70;99.90
9998;DHT22;5038;53.064;8.624;2023-04-21T02:54:28;8.70;99.90
9998;DHT22;5038;53.064;8.624;2023-04-21T02:56:56;8.70;99.90
9998;DHT22;5038;53.064;8.624;2023-04-21T02:59:26;8.70;99.90
9998;DHT22;5038;53.064;8.624;2023-04-21T03:01:54;8.70;99.90
9998;DHT22;5038;53.064;8.624;2023-04-21T03:04:22;8.70;99.90
9998;DHT22;5038;53.064;8.624;2023-04-21T03:06:51;8.70;99.90
9998;DHT22;5038;53.064;8.624;2023-04-21T03:09:20;8.70;99.90
9998;DHT22;5038;53.064;8.624;2023-04-21T03:11:48;8.60;99.90
9998;DHT22;5038;53.064;8.624;2023-04-21T03:14:17;8.70;99.90
9998;DHT22;5038;53.064;8.624;2023-04-21T03:16:47;8.70;99.90
9998;DHT22;5038;53.064;8.624;2023-04-21T03:19:15;8.70;99.90
9998;DHT22;5038;53.064;8.624;2023-04-21T03:21:43;8.60;99.90
9998;DHT22;5038;53.064;8.624;2023-04-21T03:24:12;8.70;99.90
9998;DHT22;5038;53.064;8.624;2023-04-21T03:26:40;8.60;99.90
9998;DHT22;5038;53.064;8.624;2023-04-21T03:29:08;8.70;99.90
9998;DHT22;5038;53.064;8.624;2023-04-21T03:31:36;8.60;99.90
9998;DHT22;5038;53.064;8.624;2023-04-21T03:34:07;8.60;99.90
9998;DHT22;5038;53.064;8.624;2023-04-21T03:36:35;8.60;99.90
9998;DHT22;5038;53.064;8.624;2023-04-21T03:39:03;8.60;99.90
9998;DHT22;5038;53.064;8.624;2023-04-21T03:41:48;8.60;99.90
9998;DHT22;5038;53.064;8.624;2023-04-21T03:44:16;8.60;99.90
9998;DHT22;5038;53.064;8.624;2023-04-21T03:46:44;8.60;99.90
9998;DHT22;5038;53.064;8.624;2023-04-21T03:49:13;8.60;99.90
9998;DHT22;5038;53.064;8.624;2023-04-21T03:51:41;8.60;99.90
9998;DHT22;5038;53.064;8.624;2023-04-21T03:54:10;8.60;99.90
9998;DHT22;5038;53.064;8.624;2023-04-21T03:56:38;8.60;99.90
9998;DHT22;5038;53.064;8.624;2023-04-21T03:59:06;8.70;99.90
9998;DHT22;5038;53.064;8.624;2023-04-21T04:01:34;8.60;99.90
9998;DHT22;5038;53.064;8.624;2023-04-21T04:04:02;8.70;99.90
9998;DHT22;5038;53.064;8.624;2023-04-21T04:06:32;8.70;99.90
9998;DHT22;5038;53.064;8.624;2023-04-21T04:09:01;8.70;99.90
9998;DHT22;5038;53.064;8.624;2023-04-21T04:11:30;8.70;99.90
9998;DHT22;5038;53.064;8.624;2023-04-21T04:13:59;8.70;99.90
9998;DHT22;5038;53.064;8.624;2023-04-21T04:16:27;8.70;99.90
9998;DHT22;5038;53.064;8.624;2023-04-21T04:18:56;8.70;99.90
9998;DHT22;5038;53.064;8.624;2023-04-21T04:21:24;8.70;99.90
9998;DHT22;5038;53.064;8.624;2023-04-21T04:23:54;8.70;99.90
9998;DHT22;5038;53.064;8.624;2023-04-21T04:26:23;8.70;99.90
9998;DHT22;5038;53.064;8.624;2023-04-21T04:28:51;8.70;99.90
9998;DHT22;5038;53.064;8.624;2023-04-21T04:31:22;8.70;99.90
9998;DHT22;5038;53.064;8.624;2023-04-21T04:33:51;8.60;99.90
9998;DHT22;5038;53.064;8.624;2023-04-21T04:36:21;8.70;99.90
9998;DHT22;5038;53.064;8.624;2023-04-21T04:38:49;8.70;99.90
9998;DHT22;5038;53.064;8.624;2023-04-21T04:41:19;8.70;99.90
9998;DHT22;5038;53.064;8.624;2023-04-21T04:43:48;8.70;99.90
9998;DHT22;5038;53.064;8.624;2023-04-21T04:46:16;8.70;99.90
9998;DHT22;5038;53.064;8.624;2023-04-21T04:48:46;8.70;99.90
9998;DHT22;5038;53.064;8.624;2023-04-21T04:51:15;8.60;99.90
9998;DHT22;5038;53.064;8.624;2023-04-21T04:53:43;8.60;99.90
9998;DHT22;5038;53.064;8.624;2023-04-21T04:56:11;8.60;99.90
9998;DHT22;5038;53.064;8.624;2023-04-21T04:58:41;8.60;99.90
9998;DHT22;5038;53.064;8.624;2023-04-21T05:01:12;8.70;99.90
9998;DHT22;5038;53.064;8.624;2023-04-21T05:03:40;8.70;99.90
9998;DHT22;5038;53.064;8.624;2023-04-21T05:06:09;8.60;99.90
9998;DHT22;5038;53.064;8.624;2023-04-21T05:08:37;8.60;99.90
9998;DHT22;5038;53.064;8.624;2023-04-21T05:11:07;8.70;99.90
9998;DHT22;5038;53.064;8.624;2023-04-21T05:13:35;8.70;99.90
9998;DHT22;5038;53.064;8.624;2023-04-21T05:16:07;8.70;99.90
9998;DHT22;5038;53.064;8.624;2023-04-21T05:18:37;8.70;99.90
9998;DHT22;5038;53.064;8.624;2023-04-21T05:21:05;8.70;99.90
9998;DHT22;5038;53.064;8.624;2023-04-21T05:23:33;8.70;99.90
9998;DHT22;5038;53.064;8.624;2023-04-21T05:26:01;8.70;99.90
9998;DHT22;5038;53.064;8.624;2023-04-21T05:28:30;8.70;99.90
9998;DHT22;5038;53.064;8.624;2023-04-21T05:30:58;8.70;99.90
9998;DHT22;5038;53.064;8.624;2023-04-21T05:33:28;8.70;99.90
9998;DHT22;5038;53.064;8.624;2023-04-21T05:35:57;8.80;99.90
9998;DHT22;5038;53.064;8.624;2023-04-21T05:38:26;8.80;99.90
9998;DHT22;5038;53.064;8.624;2023-04-21T05:40:54;8.80;99.90
9998;DHT22;5038;53.064;8.624;2023-04-21T05:43:22;8.90;99.90
9998;DHT22;5038;53.064;8.624;2023-04-21T05:45:50;8.90;99.90
9998;DHT22;5038;53.064;8.624;2023-04-21T05:48:19;8.90;99.90
9998;DHT22;5038;53.064;8.624;2023-04-21T05:50:48;8.90;99.90
9998;DHT22;5038;53.064;8.624;2023-04-21T05:53:16;9.00;99.90
9998;DHT22;5038;53.064;8.624;2023-04-21T05:55:44;9.00;99.90
9998;DHT22;5038;53.064;8.624;2023-04-21T05:58:12;9.10;99.90
9998;DHT22;5038;53.064;8.624;2023-04-21T06:00:40;9.20;99.90
9998;DHT22;5038;53.064;8.624;2023-04-21T06:03:08;9.30;99.90
9998;DHT22;5038;53.064;8.624;2023-04-21T06:05:37;9.50;99.90
9998;DHT22;5038;53.064;8.624;2023-04-21T06:08:06;9.60;99.90
9998;DHT22;5038;53.064;8.624;2023-04-21T06:10:34;9.80;99.90
9998;DHT22;5038;53.064;8.624;2023-04-21T06:13:02;10.00;99.90
9998;DHT22;5038;53.064;8.624;2023-04-21T06:15:31;10.30;99.90
9998;DHT22;5038;53.064;8.624;2023-04-21T06:17:59;10.50;99.90
9998;DHT22;5038;53.064;8.624;2023-04-21T06:20:27;10.70;99.90
9998;DHT22;5038;53.064;8.624;2023-04-21T06:22:55;10.90;99.90
9998;DHT22;5038;53.064;8.624;2023-04-21T06:25:25;11.10;99.90
9998;DHT22;5038;53.064;8.624;2023-04-21T06:27:53;11.30;99.90
9998;DHT22;5038;53.064;8.624;2023-04-21T06:30:22;11.50;99.90
9998;DHT22;5038;53.064;8.624;2023-04-21T06:32:50;11.70;99.90
9998;DHT22;5038;53.064;8.624;2023-04-21T06:35:18;11.90;99.90
9998;DHT22;5038;53.064;8.624;2023-04-21T06:37:47;12.00;99.90
9998;DHT22;5038;53.064;8.624;2023-04-21T06:40:15;12.20;99.90
9998;DHT22;5038;53.064;8.624;2023-04-21T06:42:44;12.40;99.90
9998;DHT22;5038;53.064;8.624;2023-04-21T06:45:13;12.60;99.90
9998;DHT22;5038;53.064;8.624;2023-04-21T06:47:41;12.80;99.90
9998;DHT22;5038;53.064;8.624;2023-04-21T06:50:09;13.10;99.90
9998;DHT22;5038;53.064;8.624;2023-04-21T06:52:37;13.20;99.90
9998;DHT22;5038;53.064;8.624;2023-04-21T06:55:07;13.40;99.90
9998;DHT22;5038;53.064;8.624;2023-04-21T06:57:35;13.60;99.90
9998;DHT22;5038;53.064;8.624;2023-04-21T07:00:05;13.80;99.90
9998;DHT22;5038;53.064;8.624;2023-04-21T07:02:34;13.90;99.90
9998;DHT22;5038;53.064;8.624;2023-04-21T07:05:02;14.00;99.90
9998;DHT22;5038;53.064;8.624;2023-04-21T07:07:31;14.20;99.90
9998;DHT22;5038;53.064;8.624;2023-04-21T07:09:59;14.30;99.90
9998;DHT22;5038;53.064;8.624;2023-04-21T07:12:27;14.40;99.90
9998;DHT22;5038;53.064;8.624;2023-04-21T07:14:55;14.40;99.90
9998;DHT22;5038;53.064;8.624;2023-04-21T07:17:25;14.60;99.90
9998;DHT22;5038;53.064;8.624;2023-04-21T07:19:53;14.70;99.90
9998;DHT22;5038;53.064;8.624;2023-04-21T07:22:21;14.70;99.90
9998;DHT22;5038;53.064;8.624;2023-04-21T07:24:50;14.80;99.90
9998;DHT22;5038;53.064;8.624;2023-04-21T07:27:18;14.90;99.90
9998;DHT22;5038;53.064;8.624;2023-04-21T07:29:46;15.00;99.90
9998;DHT22;5038;53.064;8.624;2023-04-21T07:32:14;15.00;99.90
9998;DHT22;5038;53.064;8.624;2023-04-21T07:34:44;15.10;99.90
9998;DHT22;5038;53.064;8.624;2023-04-21T07:37:14;15.20;99.90
9998;DHT22;5038;53.064;8.624;2023-04-21T07:39:42;15.30;99.90
9998;DHT22;5038;53.064;8.624;2023-04-21T07:42:10;15.40;99.90
9998;DHT22;5038;53.064;8.624;2023-04-21T07:44:38;15.50;99.90
9998;DHT22;5038;53.064;8.624;2023-04-21T07:47:06;15.50;99.90
9998;DHT22;5038;53.064;8.624;2023-04-21T07:49:35;15.60;99.90
9998;DHT22;5038;53.064;8.624;2023-04-21T07:52:04;15.70;99.90
9998;DHT22;5038;53.064;8.624;2023-04-21T07:54:32;15.70;99.90
9998;DHT22;5038;53.064;8.624;2023-04-21T07:57:00;15.80;99.90
9998;DHT22;5038;53.064;8.624;2023-04-21T07:59:28;15.90;99.90
9998;DHT22;5038;53.064;8.624;2023-04-21T08:01:57;16.00;99.90
9998;DHT22;5038;53.064;8.624;2023-04-21T08:04:25;16.10;99.90
9998;DHT22;5038;53.064;8.624;2023-04-21T08:06:53;16.20;99.90
9998;DHT22;5038;53.064;8.624;2023-04-21T08:09:23;16.30;99.90
9998;DHT22;5038;53.064;8.624;2023-04-21T08:11:51;16.40;99.90
9998;DHT22;5038;53.064;8.624;2023-04-21T08:14:20;16.50;99.90
9998;DHT22;5038;53.064;8.624;2023-04-21T08:16:48;16.60;99.90
9998;DHT22;5038;53.064;8.624;2023-04-21T08:19:17;16.70;99.90
9998;DHT22;5038;53.064;8.624;2023-04-21T08:21:46;16.80;99.90
9998;DHT22;5038;53.064;8.624;2023-04-21T08:24:14;16.90;99.90
9998;DHT22;5038;53.064;8.624;2023-04-21T08:26:43;17.00;99.90
9998;DHT22;5038;53.064;8.624;2023-04-21T08:29:12;17.10;99.90
9998;DHT22;5038;53.064;8.624;2023-04-21T08:31:40;17.20;99.90
9998;DHT22;5038;53.064;8.624;2023-04-21T08:34:08;17.30;99.90
9998;DHT22;5038;53.064;8.624;2023-04-21T08:36:36;17.40;99.90
9998;DHT22;5038;53.064;8.624;2023-04-21T08:39:05;17.50;99.90
9998;DHT22;5038;53.064;8.624;2023-04-21T08:41:33;17.60;99.90
9998;DHT22;5038;53.064;8.624;2023-04-21T08:44:03;17.70;99.90
9998;DHT22;5038;53.064;8.624;2023-04-21T08:46:32;17.80;99.90
9998;DHT22;5038;53.064;8.624;2023-04-21T08:49:02;17.90;99.90
9998;DHT22;5038;53.064;8.624;2023-04-21T08:51:30;17.90;99.90
9998;DHT22;5038;53.064;8.624;2023-04-21T08:53:58;18.00;99.90
9998;DHT22;5038;53.064;8.624;2023-04-21T08:56:26;18.10;99.90
9998;DHT22;5038;53.064;8.624;2023-04-21T08:58:55;18.20;99.90
9998;DHT22;5038;53.064;8.624;2023-04-21T09:01:24;18.20;99.90
9998;DHT22;5038;53.064;8.624;2023-04-21T09:03:52;18.20;99.90
9998;DHT22;5038;53.064;8.624;2023-04-21T09:06:21;18.20;99.90
9998;DHT22;5038;53.064;8.624;2023-04-21T09:08:53;18.30;99.90
9998;DHT22;5038;53.064;8.624;2023-04-21T09:11:22;18.30;99.90
9998;DHT22;5038;53.064;8.624;2023-04-21T09:13:56;18.40;99.90
9998;DHT22;5038;53.064;8.624;2023-04-21T09:16:30;18.50;99.90
9998;DHT22;5038;53.064;8.624;2023-04-21T09:18:59;18.50;99.90
9998;DHT22;5038;53.064;8.624;2023-04-21T09:21:28;18.60;99.90
9998;DHT22;5038;53.064;8.624;2023-04-21T09:24:03;18.60;99.90
9998;DHT22;5038;53.064;8.624;2023-04-21T09:26:32;18.60;99.90
9998;DHT22;5038;53.064;8.624;2023-04-21T09:29:05;18.70;99.90
9998;DHT22;5038;53.064;8.624;2023-04-21T09:31:35;18.80;99.90
9998;DHT22;5038;53.064;8.624;2023-04-21T09:34:17;18.90;99.90
9998;DHT22;5038;53.064;8.624;2023-04-21T09:36:45;18.90;99.90
9998;DHT22;5038;53.064;8.624;2023-04-21T09:39:14;19.00;99.90
9998;DHT22;5038;53.064;8.624;2023-04-21T09:41:45;19.10;99.90
9998;DHT22;5038;53.064;8.624;2023-04-21T09:44:13;19.10;99.90
9998;DHT22;5038;53.064;8.624;2023-04-21T09:46:47;19.30;99.90
9998;DHT22;5038;53.064;8.624;2023-04-21T09:49:17;19.30;99.90
9998;DHT22;5038;53.064;8.624;2023-04-21T09:51:45;19.40;99.90
9998;DHT22;5038;53.064;8.624;2023-04-21T09:54:18;19.40;99.90
9998;DHT22;5038;53.064;8.624;2023-04-21T09:56:52;19.50;99.90
9998;DHT22;5038;53.064;8.624;2023-04-21T09:59:24;19.60;99.90
9998;DHT22;5038;53.064;8.624;2023-04-21T10:01:57;19.70;99.90
9998;DHT22;5038;53.064;8.624;2023-04-21T10:04:27;19.70;99.90
9998;DHT22;5038;53.064;8.624;2023-04-21T10:06:59;19.70;99.90
9998;DHT22;5038;53.064;8.624;2023-04-21T10:09:32;19.70;99.90
9998;DHT22;5038;53.064;8.624;2023-04-21T10:12:02;19.80;99.90
9998;DHT22;5038;53.064;8.624;2023-04-21T10:14:33;19.90;99.90
9998;DHT22;5038;53.064;8.624;2023-04-21T10:17:05;20.00;99.90
9998;DHT22;5038;53.064;8.624;2023-04-21T10:19:35;20.00;99.90
9998;DHT22;5038;53.064;8.624;2023-04-21T10:22:06;20.10;99.80
9998;DHT22;5038;53.064;8.624;2023-04-21T10:24:39;20.10;99.90
9998;DHT22;5038;53.064;8.624;2023-04-21T10:27:09;20.20;99.20
9998;DHT22;5038;53.064;8.624;2023-04-21T10:29:38;20.30;99.10
9998;DHT22;5038;53.064;8.624;2023-04-21T10:32:38;20.40;99.00
9998;DHT22;5038;53.064;8.624;2023-04-21T10:35:09;20.40;98.50
9998;DHT22;5038;53.064;8.624;2023-04-21T10:37:37;20.50;98.10
9998;DHT22;5038;53.064;8.624;2023-04-21T10:40:32;20.50;98.00
9998;DHT22;5038;53.064;8.624;2023-04-21T10:43:43;20.50;98.00
9998;DHT22;5038;53.064;8.624;2023-04-21T10:46:31;20.50;97.70
9998;DHT22;5038;53.064;8.624;2023-04-21T10:49:08;20.50;97.40
9998;DHT22;5038;53.064;8.624;2023-04-21T10:52:04;20.50;97.30
9998;DHT22;5038;53.064;8.624;2023-04-21T10:54:41;20.60;97.30
9998;DHT22;5038;53.064;8.624;2023-04-21T10:57:13;20.60;97.30
9998;DHT22;5038;53.064;8.624;2023-04-21T10:59:42;20.70;97.20
9998;DHT22;5038;53.064;8.624;2023-04-21T11:02:12;20.80;97.10
9998;DHT22;5038;53.064;8.624;2023-04-21T11:04:42;20.80;96.90
9998;DHT22;5038;53.064;8.624;2023-04-21T11:07:16;20.90;96.50
9998;DHT22;5038;53.064;8.624;2023-04-21T11:09:46;20.90;96.10
9998;DHT22;5038;53.064;8.624;2023-04-21T11:12:16;20.90;95.70
9998;DHT22;5038;53.064;8.624;2023-04-21T11:14:45;20.90;95.70
9998;DHT22;5038;53.064;8.624;2023-04-21T11:17:16;20.90;95.30
9998;DHT22;5038;53.064;8.624;2023-04-21T11:19:46;20.90;95.30
9998;DHT22;5038;53.064;8.624;2023-04-21T11:22:15;20.90;94.80
9998;DHT22;5038;53.064;8.624;2023-04-21T11:24:44;20.90;94.60
9998;DHT22;5038;53.064;8.624;2023-04-21T11:27:12;20.90;94.30
9998;DHT22;5038;53.064;8.624;2023-04-21T11:29:41;20.80;94.10
9998;DHT22;5038;53.064;8.624;2023-04-21T11:32:12;20.80;94.00
9998;DHT22;5038;53.064;8.624;2023-04-21T11:34:41;20.70;94.00
9998;DHT22;5038;53.064;8.624;2023-04-21T11:37:21;20.70;94.20
9998;DHT22;5038;53.064;8.624;2023-04-21T11:39:56;20.60;93.40
9998;DHT22;5038;53.064;8.624;2023-04-21T11:42:24;20.60;93.70
9998;DHT22;5038;53.064;8.624;2023-04-21T11:44:53;20.70;93.70
9998;DHT22;5038;53.064;8.624;2023-04-21T11:47:22;20.70;93.40
9998;DHT22;5038;53.064;8.624;2023-04-21T11:49:52;20.80;92.80
9998;DHT22;5038;53.064;8.624;2023-04-21T11:52:25;20.90;92.70
9998;DHT22;5038;53.064;8.624;2023-04-21T11:54:58;21.00;92.80
9998;DHT22;5038;53.064;8.624;2023-04-21T11:57:27;21.10;92.90
9998;DHT22;5038;53.064;8.624;2023-04-21T11:59:57;21.10;92.50
9998;DHT22;5038;53.064;8.624;2023-04-21T12:02:27;21.20;92.10
9998;DHT22;5038;53.064;8.624;2023-04-21T12:04:57;21.20;91.90
9998;DHT22;5038;53.064;8.624;2023-04-21T12:07:28;21.30;91.80
9998;DHT22;5038;53.064;8.624;2023-04-21T12:09:57;21.30;91.50
9998;DHT22;5038;53.064;8.624;2023-04-21T12:12:26;21.40;91.30
9998;DHT22;5038;53.064;8.624;2023-04-21T12:14:54;21.40;91.00
9998;DHT22;5038;53.064;8.624;2023-04-21T12:17:22;21.50;90.90
9998;DHT22;5038;53.064;8.624;2023-04-21T12:19:50;21.50;90.60
9998;DHT22;5038;53.064;8.624;2023-04-21T12:22:18;21.60;90.40
9998;DHT22;5038;53.064;8.624;2023-04-21T12:24:50;21.50;89.90
9998;DHT22;5038;53.064;8.624;2023-04-21T12:27:18;21.60;89.00
9998;DHT22;5038;53.064;8.624;2023-04-21T12:29:47;21.60;89.20
9998;DHT22;5038;53.064;8.624;2023-04-21T12:32:15;21.60;89.00
9998;DHT22;5038;53.064;8.624;2023-04-21T12:34:43;21.60;87.90
9998;DHT22;5038;53.064;8.624;2023-04-21T12:37:11;21.60;88.10
9998;DHT22;5038;53.064;8.624;2023-04-21T12:39:40;21.60;87.50
9998;DHT22;5038;53.064;8.624;2023-04-21T12:42:09;21.60;87.40
9998;DHT22;5038;53.064;8.624;2023-04-21T12:44:38;21.60;86.60
9998;DHT22;5038;53.064;8.624;2023-04-21T12:47:07;21.50;86.20
9998;DHT22;5038;53.064;8.624;2023-04-21T12:49:35;21.50;85.60
9998;DHT22;5038;53.064;8.624;2023-04-21T12:52:03;21.50;85.20
9998;DHT22;5038;53.064;8.624;2023-04-21T12:54:32;21.50;85.00
9998;DHT22;5038;53.064;8.624;2023-04-21T12:57:00;21.50;84.60
9998;DHT22;5038;53.064;8.624;2023-04-21T12:59:30;21.50;84.40
9998;DHT22;5038;53.064;8.624;2023-04-21T13:01:58;21.50;84.10
9998;DHT22;5038;53.064;8.624;2023-04-21T13:04:27;21.40;82.90
9998;DHT22;5038;53.064;8.624;2023-04-21T13:06:56;21.40;83.20
9998;DHT22;5038;53.064;8.624;2023-04-21T13:09:24;21.50;82.70
9998;DHT22;5038;53.064;8.624;2023-04-21T13:11:52;21.50;82.10
9998;DHT22;5038;53.064;8.624;2023-04-21T13:14:20;21.40;82.00
9998;DHT22;5038;53.064;8.624;2023-04-21T13:16:49;21.40;82.20
9998;DHT22;5038;53.064;8.624;2023-04-21T13:19:18;21.50;82.10
9998;DHT22;5038;53.064;8.624;2023-04-21T13:21:46;21.50;81.90
9998;DHT22;5038;53.064;8.624;2023-04-21T13:24:17;21.50;82.20
9998;DHT22;5038;53.064;8.624;2023-04-21T13:26:46;21.50;81.10
9998;DHT22;5038;53.064;8.624;2023-04-21T13:29:14;21.50;81.40
9998;DHT22;5038;53.064;8.624;2023-04-21T13:31:42;21.50;81.10
9998;DHT22;5038;53.064;8.624;2023-04-21T13:34:12;21.50;81.20
9998;DHT22;5038;53.064;8.624;2023-04-21T13:36:40;21.50;81.30
9998;DHT22;5038;53.064;8.624;2023-04-21T13:39:09;21.60;81.20
9998;DHT22;5038;53.064;8.624;2023-04-21T13:41:37;21.60;81.30
9998;DHT22;5038;53.064;8.624;2023-04-21T13:44:05;21.60;81.10
9998;DHT22;5038;53.064;8.624;2023-04-21T13:46:33;21.70;81.40
9998;DHT22;5038;53.064;8.624;2023-04-21T13:49:02;21.60;81.10
9998;DHT22;5038;53.064;8.624;2023-04-21T13:51:31;21.70;80.80
9998;DHT22;5038;53.064;8.624;2023-04-21T13:53:59;21.70;80.00
9998;DHT22;5038;53.064;8.624;2023-04-21T13:56:27;21.70;79.80
9998;DHT22;5038;53.064;8.624;2023-04-21T13:58:56;21.70;80.10
9998;DHT22;5038;53.064;8.624;2023-04-21T14:01:25;21.70;79.80
9998;DHT22;5038;53.064;8.624;2023-04-21T14:03:53;21.70;79.10
9998;DHT22;5038;53.064;8.624;2023-04-21T14:06:23;21.70;78.60
9998;DHT22;5038;53.064;8.624;2023-04-21T14:08:52;21.70;79.00
9998;DHT22;5038;53.064;8.624;2023-04-21T14:11:27;21.70;79.00
9998;DHT22;5038;53.064;8.624;2023-04-21T14:14:03;21.70;79.20
9998;DHT22;5038;53.064;8.624;2023-04-21T14:16:34;21.70;78.80
9998;DHT22;5038;53.064;8.624;2023-04-21T14:19:02;21.60;78.20
9998;DHT22;5038;53.064;8.624;2023-04-21T14:21:30;21.60;78.50
9998;DHT22;5038;53.064;8.624;2023-04-21T14:24:01;21.60;78.70
9998;DHT22;5038;53.064;8.624;2023-04-21T14:26:29;21.50;78.80
9998;DHT22;5038;53.064;8.624;2023-04-21T14:28:59;21.50;78.90
9998;DHT22;5038;53.064;8.624;2023-04-21T14:31:38;21.40;79.10
9998;DHT22;5038;53.064;8.624;2023-04-21T14:34:06;21.40;78.90
9998;DHT22;5038;53.064;8.624;2023-04-21T14:36:34;21.40;79.00
9998;DHT22;5038;53.064;8.624;2023-04-21T14:39:04;21.30;79.30
9998;DHT22;5038;53.064;8.624;2023-04-21T14:41:33;21.40;79.60
9998;DHT22;5038;53.064;8.624;2023-04-21T14:44:01;21.40;79.70
9998;DHT22;5038;53.064;8.624;2023-04-21T14:46:29;21.40;80.00
9998;DHT22;5038;53.064;8.624;2023-04-21T14:48:57;21.50;80.20
9998;DHT22;5038;53.064;8.624;2023-04-21T14:51:26;21.50;80.20
9998;DHT22;5038;53.064;8.624;2023-04-21T14:53:54;21.50;80.00
9998;DHT22;5038;53.064;8.624;2023-04-21T15:00:05;21.30;79.50
9998;DHT22;5038;53.064;8.624;2023-04-21T15:02:33;21.30;80.10
9998;DHT22;5038;53.064;8.624;2023-04-21T15:05:01;21.30;80.10
9998;DHT22;5038;53.064;8.624;2023-04-21T15:07:30;21.30;80.20
9998;DHT22;5038;53.064;8.624;2023-04-21T15:09:58;21.40;80.70
9998;DHT22;5038;53.064;8.624;2023-04-21T15:12:26;21.40;80.50
9998;DHT22;5038;53.064;8.624;2023-04-21T15:14:55;21.40;80.40
9998;DHT22;5038;53.064;8.624;2023-04-21T15:17:24;21.50;80.40
9998;DHT22;5038;53.064;8.624;2023-04-21T15:19:52;21.60;80.40
9998;DHT22;5038;53.064;8.624;2023-04-21T15:22:21;21.60;80.20
9998;DHT22;5038;53.064;8.624;2023-04-21T15:24:49;21.60;80.50
9998;DHT22;5038;53.064;8.624;2023-04-21T15:27:20;21.60;80.30
9998;DHT22;5038;53.064;8.624;2023-04-21T15:29:48;21.50;80.00
9998;DHT22;5038;53.064;8.624;2023-04-21T15:32:17;21.40;79.80
9998;DHT22;5038;53.064;8.624;2023-04-21T15:34:46;21.40;80.10
9998;DHT22;5038;53.064;8.624;2023-04-21T15:37:14;21.40;79.90
9998;DHT22;5038;53.064;8.624;2023-04-21T15:39:44;21.40;79.90
9998;DHT22;5038;53.064;8.624;2023-04-21T15:42:13;21.40;79.40
9998;DHT22;5038;53.064;8.624;2023-04-21T15:44:41;21.40;79.20
9998;DHT22;5038;53.064;8.624;2023-04-21T15:47:09;21.40;78.80
9998;DHT22;5038;53.064;8.624;2023-04-21T15:49:37;21.40;78.30
9998;DHT22;5038;53.064;8.624;2023-04-21T15:52:07;21.40;78.30
9998;DHT22;5038;53.064;8.624;2023-04-21T15:54:35;21.40;78.30
9998;DHT22;5038;53.064;8.624;2023-04-21T15:57:04;21.40;78.30
9998;DHT22;5038;53.064;8.624;2023-04-21T15:59:32;21.40;78.30
9998;DHT22;5038;53.064;8.624;2023-04-21T16:02:00;21.50;78.70
9998;DHT22;5038;53.064;8.624;2023-04-21T16:04:28;21.50;78.50
9998;DHT22;5038;53.064;8.624;2023-04-21T16:06:57;21.60;78.50
9998;DHT22;5038;53.064;8.624;2023-04-21T16:09:27;21.60;78.20
9998;DHT22;5038;53.064;8.624;2023-04-21T16:11:55;21.60;78.10
9998;DHT22;5038;53.064;8.624;2023-04-21T16:14:23;21.60;78.10
9998;DHT22;5038;53.064;8.624;2023-04-21T16:16:51;21.70;77.90
9998;DHT22;5038;53.064;8.624;2023-04-21T16:19:20;21.70;78.40
9998;DHT22;5038;53.064;8.624;2023-04-21T16:21:48;21.70;77.90
9998;DHT22;5038;53.064;8.624;2023-04-21T16:24:16;21.70;77.40